Santa Maria Pub/Capt G Allan Hancock Field
KSMX : now visible

Airfield :











YOU CAN JOIN US ON...

 
LOGIN :

Register | Disclaimer

   EN    FR    IT 

 









Legend :    VFR   Marginal VFR   IFR   Intensive IFR   Very Intensive IFR
Visi :
Ceiling :
>= 8 km
>= 3000ft
5 to 8 km
1000 to 3000 ft
1500m to 5 km
500 to 1000 ft
800 to 1500m
200 to 500 ft
< 800m
< 200 ft
Symbols :   Thunderstorms  Fog  Heavy snow  Heavy precipitations  Wind > 20 kt






- Airport Elevation : 261 ft
- IATA code : SMX


KSMX - Santa Maria Pub/Capt G Allan Hancock Field

CURRENT METAR :
  • 181851Z 29011KT 6SM HZ CLR 21/11 A2981 RMK AO2 SLP095 T02110111

EXPIRED METARs :
  • 181751Z 28012KT 10SM CLR 20/11 A2981 RMK AO2 SLP095 T02000106 10206 20089 53002
  • 181651Z 29008KT 7SM CLR 18/11 A2981 RMK AO2 SLP095 T01830106
  • 181551Z 29005KT 6SM HZ SCT200 16/12 A2980 RMK AO2 SLP094 T01560117
  • 181451Z 31005KT 6SM HZ FEW200 13/12 A2980 RMK AO2 SLP093 T01280117 51010

TAF KSMX
Valid from the 18 at 18:00 until the 19 at 18:00 UTC


181740Z 1818/1918 29008KT P6SM SKC
FM181900 30015G25KT P6SM SKC
FM190300 30008KT P6SM SKC
FM190800 VRB03KT P6SM SKC
FM191200 27004KT 4SM BR SKC
FM191700 30006KT P6SM SKC
KZLA FIR / North America



MET'MAP, your aeronautical weather chart ! - Copyright ORBIFLY December 2007 - Disclaimer

ORBIFLY MET'MAP TEAM :

Programming & Development : Alexandra Zaïnal
Original concept : Baudouin d'Aumeries
Technical & hardware support : Manuel Goepfert
Assistance : Marc-Olivier Méhu




SOURCES & CREDITS :

   NOAA       Earth
Advisory